Biggs, California
Current Conditions -  °F | °C
As of 10:53 PM on Thursday 18 Dec 2014 (Local Time) from KOVE Reporting Station
Overcast Overcast  
Wind Chill: 52°   Ceiling: 10000
Heat Index: 52°   Visibility: 10mi
Dew Point: 46°   Wind: 9mph
Humidity: 80%   Direction: 140°SE
Pressure: 30.18"   Gusts: NA
Location:  39.41°N, 121.71°W
Report Text: KOVE 190653Z AUTO 14008KT 10SM SCT049 OVC100 11/08 A3018 RMK AO2 SLP220 T01110078
Loading
Personal Weather Stations






























Interactive Weather Map New forecast layout! Learn more

10-Day Weather Forecast

Advertisements
Track Severe Weather on mobile